createdAt,value
2023-05-12T00:01:43.329Z,98115.84
2023-05-12T00:04:52.992Z,98122.81
2023-05-12T00:08:00.068Z,98121.28
2023-05-12T00:11:06.451Z,98127.09
2023-05-12T00:14:20.920Z,98117.19
2023-05-12T00:17:29.967Z,98112.94
2023-05-12T00:20:37.446Z,98121.00
2023-05-12T00:23:43.426Z,98122.19
2023-05-12T00:26:50.374Z,98121.44
2023-05-12T00:29:59.434Z,98119.75
2023-05-12T00:33:17.583Z,98116.53
2023-05-12T00:36:23.712Z,98119.53
2023-05-12T00:39:30.642Z,98120.19
2023-05-12T00:42:38.029Z,98115.59
2023-05-12T00:45:45.449Z,98111.91
2023-05-12T00:48:55.632Z,98111.81
2023-05-12T00:52:09.443Z,98118.31
2023-05-12T00:55:19.356Z,98111.63
2023-05-12T00:58:32.448Z,98113.00
2023-05-12T01:01:39.659Z,98109.69
2023-05-12T01:04:55.816Z,98111.69
2023-05-12T01:08:04.581Z,98115.72
2023-05-12T01:11:16.079Z,98112.13
2023-05-12T01:14:22.078Z,98116.25
2023-05-12T01:17:39.008Z,98113.34
2023-05-12T01:20:54.095Z,98115.34
2023-05-12T01:24:08.429Z,98112.03
2023-05-12T01:27:23.192Z,98121.84
2023-05-12T01:30:44.118Z,98117.41
2023-05-12T01:33:52.291Z,98122.13
2023-05-12T01:36:59.114Z,98117.66
2023-05-12T01:40:05.657Z,98120.81
2023-05-12T01:43:15.483Z,98128.31
2023-05-12T01:46:21.361Z,98125.84
2023-05-12T01:49:29.256Z,98129.00
2023-05-12T01:52:35.458Z,98130.69
2023-05-12T01:55:43.199Z,98130.06
2023-05-12T01:58:51.936Z,98131.91
2023-05-12T02:01:58.934Z,98128.28
2023-05-12T02:05:11.229Z,98131.41
2023-05-12T02:08:18.165Z,98139.88
2023-05-12T02:11:24.263Z,98126.78
2023-05-12T02:14:33.617Z,98125.47
2023-05-12T02:17:39.929Z,98124.66
2023-05-12T02:20:50.900Z,98128.47
2023-05-12T02:23:56.941Z,98127.31
2023-05-12T02:27:03.737Z,98120.84
2023-05-12T02:30:15.483Z,98120.19
2023-05-12T02:33:26.593Z,98130.16
2023-05-12T02:36:32.877Z,98124.00
2023-05-12T02:39:39.825Z,98128.84
2023-05-12T02:42:45.923Z,98137.50
2023-05-12T02:45:56.469Z,98126.75
2023-05-12T02:49:05.605Z,98127.72
2023-05-12T02:52:18.449Z,98123.75
2023-05-12T02:55:24.891Z,98119.28
2023-05-12T02:58:38.396Z,98123.78
2023-05-12T03:01:47.015Z,98121.63
2023-05-12T03:04:53.838Z,98115.16
2023-05-12T03:07:59.859Z,98121.28
2023-05-12T03:11:07.587Z,98120.63
2023-05-12T03:14:14.204Z,98126.94
2023-05-12T03:17:23.766Z,98134.94
2023-05-12T03:20:29.757Z,98139.56
2023-05-12T03:23:38.715Z,98122.63
2023-05-12T03:26:49.022Z,98133.59
2023-05-12T03:29:56.113Z,98132.75
2023-05-12T03:33:12.624Z,98135.09
2023-05-12T03:36:21.892Z,98126.63
2023-05-12T03:39:27.894Z,98130.78
2023-05-12T03:42:48.905Z,98132.94
2023-05-12T03:45:57.564Z,98133.25
2023-05-12T03:49:06.976Z,98137.59
2023-05-12T03:52:12.985Z,98138.88
2023-05-12T03:55:19.938Z,98133.41
2023-05-12T03:58:26.340Z,98133.25
2023-05-12T04:01:33.273Z,98138.03
2023-05-12T04:04:43.048Z,98133.31
2023-05-12T04:07:51.282Z,98144.06
2023-05-12T04:10:59.135Z,98145.03
2023-05-12T04:14:06.333Z,98160.50
2023-05-12T04:17:12.259Z,98147.38
2023-05-12T04:20:21.898Z,98150.84
2023-05-12T04:23:28.662Z,98160.06
2023-05-12T04:26:35.438Z,98157.31
2023-05-12T04:29:41.523Z,98157.75
2023-05-12T04:32:51.786Z,98151.44
2023-05-12T04:36:02.141Z,98151.47
2023-05-12T04:39:09.793Z,98159.84
2023-05-12T04:42:16.178Z,98154.47
2023-05-12T04:45:23.436Z,98152.84
2023-05-12T04:48:31.539Z,98158.38
2023-05-12T04:51:43.310Z,98160.00
2023-05-12T04:54:49.727Z,98165.88
2023-05-12T04:57:56.727Z,98161.66
2023-05-12T05:01:03.829Z,98167.22
2023-05-12T05:04:10.881Z,98158.94
2023-05-12T05:07:19.750Z,98168.81
2023-05-12T05:10:26.649Z,98162.88
2023-05-12T05:13:32.666Z,98166.28
2023-05-12T05:16:39.720Z,98171.56
2023-05-12T05:19:57.518Z,98161.09
2023-05-12T05:23:10.578Z,98163.94
2023-05-12T05:26:16.667Z,98163.09
2023-05-12T05:29:23.452Z,98165.88
2023-05-12T05:32:30.681Z,98162.13
2023-05-12T05:35:37.883Z,98169.38
2023-05-12T05:38:47.152Z,98174.00
2023-05-12T05:41:54.353Z,98175.56
2023-05-12T05:45:00.408Z,98170.31
2023-05-12T05:48:08.723Z,98177.72
2023-05-12T05:51:15.333Z,98177.09
2023-05-12T05:54:27.166Z,98173.31
2023-05-12T05:57:33.316Z,98180.56
2023-05-12T06:00:41.635Z,98171.69
2023-05-12T06:03:47.764Z,98181.81
2023-05-12T06:06:58.191Z,98174.03
2023-05-12T06:10:07.242Z,98179.66
2023-05-12T06:13:14.065Z,98188.16
2023-05-12T06:16:20.165Z,98175.53
2023-05-12T06:19:27.983Z,98189.28
2023-05-12T06:22:35.017Z,98188.50
2023-05-12T06:25:50.579Z,98188.09
2023-05-12T06:28:56.841Z,98190.34
2023-05-12T06:32:09.089Z,98188.44
2023-05-12T06:35:15.216Z,98184.44
2023-05-12T06:38:22.014Z,98186.34
2023-05-12T06:41:39.725Z,98181.03
2023-05-12T06:44:46.728Z,98183.53
2023-05-12T06:47:53.125Z,98179.47
2023-05-12T06:51:20.935Z,98179.91
2023-05-12T06:54:27.289Z,98183.28
2023-05-12T06:57:38.068Z,98185.47
2023-05-12T07:00:44.171Z,98178.50
2023-05-12T07:03:51.123Z,98178.34
2023-05-12T07:06:57.378Z,98172.88
2023-05-12T07:10:04.366Z,98174.69
2023-05-12T07:13:13.337Z,98175.09
2023-05-12T07:16:21.912Z,98174.44
2023-05-12T07:19:30.901Z,98169.97
2023-05-12T07:22:38.938Z,98175.06
2023-05-12T07:25:45.406Z,98179.72
2023-05-12T07:28:54.996Z,98176.56
2023-05-12T07:32:00.813Z,98183.84
2023-05-12T07:35:09.616Z,98185.47
2023-05-12T07:38:16.370Z,98182.16
2023-05-12T07:41:23.408Z,98164.66
2023-05-12T07:44:37.265Z,98177.72
2023-05-12T07:47:48.866Z,98180.25
2023-05-12T07:50:55.052Z,98171.97
2023-05-12T07:54:01.973Z,98160.91
2023-05-12T07:57:08.397Z,98184.16
2023-05-12T08:00:19.273Z,98179.47
2023-05-12T08:03:25.470Z,98172.19
2023-05-12T08:06:32.352Z,98175.09
2023-05-12T08:09:38.288Z,98177.59
2023-05-12T08:12:46.007Z,98180.91
2023-05-12T08:15:55.840Z,98182.22
2023-05-12T08:19:02.716Z,98183.19
2023-05-12T08:22:08.754Z,98189.72
2023-05-12T08:25:16.690Z,98188.91
2023-05-12T08:28:22.528Z,98191.53
2023-05-12T08:31:32.144Z,98186.53
2023-05-12T08:34:38.328Z,98190.84
2023-05-12T08:37:46.144Z,98182.00
2023-05-12T08:41:11.241Z,98179.84
2023-05-12T08:44:23.914Z,98192.28
2023-05-12T08:47:33.926Z,98195.94
2023-05-12T08:50:48.252Z,98188.47
2023-05-12T08:53:59.844Z,98190.09
2023-05-12T08:57:09.181Z,98194.28
2023-05-12T09:03:37.202Z,98187.13
2023-05-12T09:06:46.423Z,98194.03
2023-05-12T09:10:01.645Z,98193.81
2023-05-12T09:13:20.052Z,98192.94
2023-05-12T09:16:35.296Z,98195.16
2023-05-12T09:19:43.922Z,98198.72
2023-05-12T09:22:50.894Z,98191.59
2023-05-12T09:26:04.343Z,98194.88
2023-05-12T09:29:15.786Z,98182.59
2023-05-12T09:32:39.016Z,98181.97
2023-05-12T09:35:49.647Z,98184.88
2023-05-12T09:39:07.771Z,98198.38
2023-05-12T09:42:17.591Z,98178.81
2023-05-12T09:45:23.615Z,98191.53
2023-05-12T09:48:30.456Z,98179.47
2023-05-12T09:51:39.178Z,98187.72
2023-05-12T09:54:46.133Z,98183.22
2023-05-12T09:57:53.675Z,98182.16
2023-05-12T10:04:15.116Z,98187.31
2023-05-12T10:07:29.165Z,98175.78
2023-05-12T10:10:40.584Z,98191.59
2023-05-12T10:13:47.778Z,98198.22
2023-05-12T10:16:55.258Z,98186.69
2023-05-12T10:20:06.949Z,98186.84
2023-05-12T10:23:16.661Z,98185.88
2023-05-12T10:26:31.723Z,98186.84
2023-05-12T10:29:43.978Z,98179.34
2023-05-12T10:32:51.254Z,98176.25
2023-05-12T10:36:00.445Z,98175.16
2023-05-12T10:39:35.377Z,98177.69
2023-05-12T10:42:44.251Z,98168.56
2023-05-12T10:46:09.017Z,98179.56
2023-05-12T10:49:15.994Z,98169.53
2023-05-12T10:52:24.395Z,98166.47
2023-05-12T10:55:51.625Z,98170.47
2023-05-12T10:59:17.981Z,98182.53
2023-05-12T11:02:31.202Z,98174.03
2023-05-12T11:05:40.091Z,98182.97
2023-05-12T11:08:50.632Z,98184.19
2023-05-12T11:12:01.085Z,98190.00
2023-05-12T11:15:09.725Z,98180.91
2023-05-12T11:18:17.789Z,98176.56
2023-05-12T11:21:23.800Z,98172.81
2023-05-12T11:24:30.488Z,98174.41
2023-05-12T11:27:42.783Z,98191.50
2023-05-12T11:31:00.036Z,98189.84
2023-05-12T11:34:12.704Z,98179.91
2023-05-12T11:37:21.718Z,98193.81
2023-05-12T11:40:27.703Z,98197.13
2023-05-12T11:43:43.797Z,98193.91
2023-05-12T11:47:01.168Z,98192.34
2023-05-12T11:50:10.349Z,98203.88
2023-05-12T11:53:19.098Z,98189.09
2023-05-12T11:56:27.419Z,98196.03
2023-05-12T11:59:38.256Z,98200.47
2023-05-12T12:02:45.122Z,98207.41
2023-05-12T12:06:02.887Z,98206.38
2023-05-12T12:09:13.508Z,98199.44
2023-05-12T12:12:26.689Z,98205.56
2023-05-12T12:15:36.427Z,98193.31
2023-05-12T12:18:43.483Z,98196.75
2023-05-12T12:21:50.340Z,98198.91
2023-05-12T12:24:56.427Z,98197.44
2023-05-12T12:28:03.205Z,98196.97
2023-05-12T12:31:12.035Z,98200.38
2023-05-12T12:34:18.892Z,98195.88
2023-05-12T12:37:24.942Z,98202.94
2023-05-12T12:40:31.896Z,98202.47
2023-05-12T12:43:38.127Z,98202.34
2023-05-12T12:46:47.670Z,98202.13
2023-05-12T12:50:00.701Z,98197.66
2023-05-12T12:53:07.524Z,98207.63
2023-05-12T12:56:13.440Z,98214.03
2023-05-12T12:59:20.200Z,98205.25
2023-05-12T13:02:30.008Z,98213.91
2023-05-12T13:05:37.347Z,98214.06
2023-05-12T13:08:43.543Z,98211.25
2023-05-12T13:11:51.061Z,98199.31
2023-05-12T13:14:57.239Z,98208.94
2023-05-12T13:18:07.176Z,98209.13
2023-05-12T13:21:13.194Z,98214.75
2023-05-12T13:24:20.041Z,98203.19
2023-05-12T13:27:29.395Z,98203.03
2023-05-12T13:30:38.101Z,98202.91
2023-05-12T13:33:46.668Z,98199.41
2023-05-12T13:36:53.882Z,98198.94
2023-05-12T13:39:59.998Z,98190.28
2023-05-12T13:43:25.316Z,98180.66
2023-05-12T13:46:31.265Z,98182.19
2023-05-12T13:49:40.825Z,98197.75
2023-05-12T13:52:47.898Z,98189.78
2023-05-12T13:55:55.123Z,98185.72
2023-05-12T13:59:05.284Z,98179.84
2023-05-12T14:02:14.120Z,98187.94
2023-05-12T14:05:23.596Z,98169.25
2023-05-12T14:08:30.749Z,98173.38
2023-05-12T14:11:37.321Z,98180.19
2023-05-12T14:14:49.947Z,98180.66
2023-05-12T14:17:56.052Z,98177.44
2023-05-12T14:21:08.222Z,98183.59
2023-05-12T14:24:14.171Z,98176.78
2023-05-12T14:27:30.949Z,98182.03
2023-05-12T14:30:37.796Z,98185.94
2023-05-12T14:33:44.751Z,98168.31
2023-05-12T14:36:53.282Z,98176.78
2023-05-12T14:40:02.429Z,98187.44
2023-05-12T14:43:14.827Z,98191.94
2023-05-12T14:46:32.129Z,98175.13
2023-05-12T14:49:38.011Z,98178.56
2023-05-12T14:52:47.848Z,98185.72
2023-05-12T14:55:54.938Z,98188.25
2023-05-12T14:59:01.682Z,98185.53
2023-05-12T15:02:17.078Z,98178.13
2023-05-12T15:05:29.682Z,98185.28
2023-05-12T15:08:47.302Z,98183.56
2023-05-12T15:11:55.451Z,98184.28
2023-05-12T15:15:04.708Z,98190.59
2023-05-12T15:18:11.788Z,98195.06
2023-05-12T15:21:26.338Z,98180.84
2023-05-12T15:24:35.876Z,98195.88
2023-05-12T15:27:42.201Z,98196.66
2023-05-12T15:30:58.130Z,98186.38
2023-05-12T15:34:04.001Z,98191.41
2023-05-12T15:37:11.601Z,98192.75
2023-05-12T15:40:20.506Z,98196.88
2023-05-12T15:43:27.553Z,98200.69
2023-05-12T15:46:38.525Z,98194.41
2023-05-12T15:49:45.524Z,98190.31
2023-05-12T15:52:51.758Z,98199.72
2023-05-12T15:56:09.660Z,98196.38
2023-05-12T15:59:16.627Z,98191.06
2023-05-12T16:02:26.435Z,98203.03
2023-05-12T16:05:34.373Z,98192.09
2023-05-12T16:08:41.116Z,98198.00
2023-05-12T16:11:49.655Z,98193.97
2023-05-12T16:14:57.139Z,98199.50
2023-05-12T16:18:03.288Z,98191.97
2023-05-12T16:21:10.341Z,98194.88
2023-05-12T16:24:16.248Z,98213.44
2023-05-12T16:27:25.817Z,98193.69
2023-05-12T16:30:40.156Z,98212.38
2023-05-12T16:33:47.226Z,98210.22
2023-05-12T16:36:53.365Z,98211.56
2023-05-12T16:40:00.201Z,98213.66
2023-05-12T16:43:08.873Z,98215.34
2023-05-12T16:46:15.649Z,98223.63
2023-05-12T16:49:21.650Z,98225.19
2023-05-12T16:52:28.758Z,98213.41
2023-05-12T16:55:34.727Z,98224.06
2023-05-12T16:58:44.691Z,98225.94
2023-05-12T17:01:51.162Z,98219.41
2023-05-12T17:04:58.008Z,98230.72
2023-05-12T17:08:03.948Z,98218.91
2023-05-12T17:11:10.911Z,98231.56
2023-05-12T17:14:23.848Z,98234.75
2023-05-12T17:17:30.965Z,98234.47
2023-05-12T17:20:37.345Z,98238.38
2023-05-12T17:23:44.368Z,98237.22
2023-05-12T17:26:50.906Z,98242.75
2023-05-12T17:30:06.430Z,98243.41
2023-05-12T17:33:18.659Z,98247.38
2023-05-12T17:36:25.621Z,98248.09
2023-05-12T17:39:31.555Z,98252.47
2023-05-12T17:42:39.002Z,98257.28
2023-05-12T17:45:48.014Z,98257.06
2023-05-12T17:48:56.087Z,98256.06
2023-05-12T17:52:02.558Z,98265.38
2023-05-12T17:55:11.259Z,98264.78
2023-05-12T17:58:17.360Z,98269.22
2023-05-12T18:01:27.222Z,98268.16
2023-05-12T18:04:36.284Z,98266.94
2023-05-12T18:07:43.536Z,98266.34
2023-05-12T18:11:00.249Z,98261.25
2023-05-12T18:14:20.021Z,98271.34
2023-05-12T18:17:29.333Z,98266.41
2023-05-12T18:20:41.122Z,98275.72
2023-05-12T18:23:47.262Z,98276.31
2023-05-12T18:26:54.131Z,98282.31
2023-05-12T18:30:00.134Z,98282.94
2023-05-12T18:33:09.622Z,98279.03
2023-05-12T18:36:15.637Z,98287.06
2023-05-12T18:39:23.851Z,98288.53
2023-05-12T18:42:32.695Z,98288.13
2023-05-12T18:45:39.675Z,98295.53
2023-05-12T18:48:48.866Z,98302.53
2023-05-12T18:51:55.746Z,98305.84
2023-05-12T18:55:01.735Z,98306.66
2023-05-12T18:58:08.763Z,98303.53
2023-05-12T19:01:15.048Z,98307.03
2023-05-12T19:04:24.904Z,98311.09
2023-05-12T19:07:30.980Z,98310.81
2023-05-12T19:10:39.768Z,98311.81
2023-05-12T19:13:47.554Z,98314.09
2023-05-12T19:16:54.573Z,98321.25
2023-05-12T19:20:03.581Z,98313.38
2023-05-12T19:23:10.415Z,98317.09
2023-05-12T19:26:19.188Z,98312.16
2023-05-12T19:29:26.440Z,98319.78
2023-05-12T19:32:34.065Z,98318.50
2023-05-12T19:35:43.656Z,98321.59
2023-05-12T19:38:49.735Z,98320.56
2023-05-12T19:41:56.802Z,98327.19
2023-05-12T19:45:02.923Z,98330.91
2023-05-12T19:48:10.802Z,98328.63
2023-05-12T19:51:19.512Z,98334.41
2023-05-12T19:54:26.787Z,98337.06
2023-05-12T19:57:32.828Z,98336.03
2023-05-12T20:00:40.039Z,98334.72
2023-05-12T20:03:46.112Z,98331.88
2023-05-12T20:06:57.698Z,98334.66
2023-05-12T20:10:04.009Z,98330.28
2023-05-12T20:13:10.758Z,98330.44
2023-05-12T20:16:16.914Z,98334.59
2023-05-12T20:19:28.051Z,98334.09
2023-05-12T20:22:36.824Z,98336.78
2023-05-12T20:25:43.835Z,98325.41
2023-05-12T20:28:51.454Z,98330.56
2023-05-12T20:31:58.856Z,98320.88
2023-05-12T20:35:05.696Z,98316.94
2023-05-12T20:38:15.787Z,98317.78
2023-05-12T20:41:21.884Z,98317.66
2023-05-12T20:44:29.075Z,98315.66
2023-05-12T20:47:37.807Z,98312.22
2023-05-12T20:50:46.045Z,98314.50
2023-05-12T20:53:54.983Z,98324.38
2023-05-12T20:57:01.853Z,98315.38
2023-05-12T21:00:11.013Z,98316.19
2023-05-12T21:03:17.752Z,98326.88
2023-05-12T21:06:23.775Z,98321.13
2023-05-12T21:09:33.214Z,98330.91
2023-05-12T21:12:39.789Z,98324.97
2023-05-12T21:15:46.608Z,98328.88
2023-05-12T21:18:52.643Z,98327.72
2023-05-12T21:21:59.450Z,98326.91
2023-05-12T21:25:09.471Z,98335.22
2023-05-12T21:28:18.071Z,98324.44
2023-05-12T21:31:24.197Z,98330.19
2023-05-12T21:34:33.877Z,98330.81
2023-05-12T21:37:40.677Z,98341.09
2023-05-12T21:40:55.217Z,98343.78
2023-05-12T21:44:01.341Z,98342.25
2023-05-12T21:47:09.028Z,98343.88
2023-05-12T21:50:15.189Z,98347.19
2023-05-12T21:53:21.929Z,98344.19
2023-05-12T21:56:30.595Z,98355.59
2023-05-12T21:59:37.621Z,98364.00
2023-05-12T22:02:43.663Z,98361.53
2023-05-12T22:05:50.505Z,98355.94
2023-05-12T22:08:56.810Z,98362.66
2023-05-12T22:12:06.201Z,98362.13
2023-05-12T22:15:13.381Z,98359.88
2023-05-12T22:18:20.242Z,98364.25
2023-05-12T22:21:26.558Z,98369.53
2023-05-12T22:24:33.372Z,98369.16
2023-05-12T22:27:41.950Z,98365.31
2023-05-12T22:30:48.748Z,98371.31
2023-05-12T22:33:54.764Z,98368.38
2023-05-12T22:37:01.613Z,98372.25
2023-05-12T22:40:09.391Z,98363.06
2023-05-12T22:43:18.716Z,98372.63
2023-05-12T22:46:26.666Z,98365.00
2023-05-12T22:49:33.520Z,98363.81
2023-05-12T22:52:39.434Z,98368.88
2023-05-12T22:55:47.252Z,98368.47
2023-05-12T22:58:55.886Z,98371.97
2023-05-12T23:02:02.694Z,98373.34
2023-05-12T23:05:10.292Z,98372.03
2023-05-12T23:08:17.087Z,98366.63
2023-05-12T23:11:23.353Z,98370.25
2023-05-12T23:14:32.754Z,98374.03
2023-05-12T23:17:38.813Z,98363.81
2023-05-12T23:20:46.177Z,98374.50
2023-05-12T23:23:52.060Z,98371.78
2023-05-12T23:26:58.890Z,98380.81
2023-05-12T23:30:08.707Z,98374.56
2023-05-12T23:33:15.980Z,98377.97
2023-05-12T23:36:22.315Z,98378.81
2023-05-12T23:39:29.380Z,98371.53
2023-05-12T23:42:35.242Z,98363.16
2023-05-12T23:45:44.767Z,98368.09
2023-05-12T23:48:51.316Z,98370.84
2023-05-12T23:51:58.119Z,98368.53
2023-05-12T23:55:04.267Z,98370.31
2023-05-12T23:58:11.539Z,98368.09
